Flight Track Log - Related Links

Times and Time Zones

All times are in EST time to prevent confusion due to time zone crossing. See the N493TM flight status page for this flight to view local times or setup timezone preferences in your user account.

Time Position Orientation Groundspeed Altitude Reporting Facility
EST Latitude Longitude Course Direction KTS MPH feet Rate Location/Type
Sun 11:53:00 PM 47.7406 -122.3488 175° South  Level FlightAware Approximate
Sun 11:54:00 PM 47.6340 -122.3355 175° South  Level FlightAware Approximate
Sun 11:55:00 PM 47.5277 -122.3189 172° South  Level FlightAware Approximate
Sun 11:56:00 PM 47.4216 -122.3000 180° South  Level FlightAware Approximate
Sun 11:57:00 PM 47.3149 -122.2947 174° South  Level FlightAware Approximate
Sun 11:57:26 PM 49.0167 -122.3167 175° South 140 161 1,200  Level Vancouver Center
Sun 11:58:00 PM 47.2085 -122.2787 174° South  Level FlightAware Approximate
Sun 11:58:26 PM 48.9833 -122.3000 162° South 150 173 4,000  Level Vancouver Center
Sun 11:59:00 PM 47.1020 -122.2627 174° South  Level FlightAware Approximate
Sun 11:59:26 PM 48.9500 -122.3500 225° Southwest 190 219 6,800  Level Vancouver Center
Mon 12:00:00 AM 46.9955 -122.2500 180° South  Level FlightAware Approximate
Mon 12:00:26 AM 48.9000 -122.4000 213° Southwest 220 253 7,000  Level Vancouver Center
Mon 12:01:00 AM 46.8886 -122.2409 177° South  Level FlightAware Approximate
Mon 12:01:26 AM 48.8333 -122.4500 206° Southwest 230 265 7,500  Level Vancouver Center
Mon 12:02:00 AM 46.7817 -122.2310 175° South  Level FlightAware Approximate
Mon 12:02:26 AM 48.7667 -122.4500 180° South 250 288 10,400  Level Vancouver Center
Mon 12:03:00 AM 46.6750 -122.2175 175° South  Level FlightAware Approximate
Mon 12:03:26 AM 48.7000 -122.4833 198° South 260 299 13,000  Level Vancouver Center
Mon 12:04:26 AM 48.6333 -122.5333 206° Southwest 270 311 14,800 1,738 Climbing Vancouver Center
Mon 12:05:51 AM 48.5317 -122.5578 189° South 316 364 17,200 1,655 Climbing Seattle Center
Mon 12:06:51 AM 48.4392 -122.5550 179° South 329 379 18,800 1,636 Climbing Seattle Center
Mon 12:07:52 AM 48.3431 -122.5503 178° South 340 391 20,500 1,574 Climbing Seattle Center
Mon 12:08:53 AM 48.2406 -122.5458 178° South 359 413 22,000 1,537 Climbing Seattle Center
Mon 12:09:53 AM 48.1358 -122.5417 178° South 375 432 23,600 1,587 Climbing Seattle Center
Mon 12:10:54 AM 48.0089 -122.5358 178° South 380 437 25,200 1,475 Climbing Seattle Center
Mon 12:11:55 AM 47.9003 -122.5317 179° South 388 447 26,600 1,339 Climbing Seattle Center
Mon 12:12:55 AM 47.7903 -122.5275 179° South 398 458 27,900 1,140 Climbing Seattle Center
Mon 12:13:56 AM 47.6892 -122.5228 178° South 407 468 28,900 1,240 Climbing Seattle Center
Mon 12:14:56 AM 47.5675 -122.5197 179° South 415 478 30,400 1,339 Climbing Seattle Center
Mon 12:15:57 AM 47.4533 -122.5128 178° South 417 480 31,600 1,230 Climbing Seattle Center
Mon 12:16:58 AM 47.3397 -122.4733 167° South 432 497 32,900 1,240 Climbing Seattle Center
Mon 12:17:58 AM 47.2289 -122.4133 160° South 427 491 34,100 1,091 Climbing Seattle Center
Mon 12:18:59 AM 47.1175 -122.3511 159° South 431 496 35,100 934 Climbing Seattle Center
Mon 12:20:00 AM 47.0044 -122.2897 160° South 434 499 36,000 942 Climbing Seattle Center
Mon 12:21:00 AM 46.8633 -122.2592 172° South 430 495 37,000 843 Climbing Seattle Center
Mon 12:22:01 AM 46.7439 -122.2592 180° South 430 495 37,700 694 Climbing Seattle Center
Mon 12:23:01 AM 46.6239 -122.2597 180° South 430 495 38,400 645 Climbing Seattle Center
Mon 12:24:02 AM 46.5039 -122.2581 179° South 431 496 39,000 295 Climbing Seattle Center
Mon 12:25:03 AM 46.3819 -122.2586 180° South 438 504 39,000  Level Seattle Center
Mon 12:26:03 AM 46.2586 -122.2575 180° South 443 510 39,000  Level Seattle Center
Mon 12:27:04 AM 46.1419 -122.2569 180° South 441 507 39,000  Level Seattle Center
Mon 12:28:05 AM 46.0192 -122.2569 180° South 441 507 39,000  Level Seattle Center
Mon 12:29:05 AM 45.8989 -122.2542 179° South 435 501 39,000  Level Seattle Center
Mon 12:30:06 AM 45.7781 -122.2558 181° South 432 497 39,000  Level Seattle Center
Mon 12:31:06 AM 45.6583 -122.2539 179° South 430 495 39,000  Level Seattle Center
Mon 12:32:07 AM 45.5381 -122.2544 180° South 431 496 39,000  Level Seattle Center
Mon 12:33:08 AM 45.4181 -122.2531 180° South 429 494 39,000  Level Seattle Center
Mon 12:34:08 AM 45.3000 -122.2533 180° South 426 490 39,000  Level Seattle Center
Mon 12:35:09 AM 45.1814 -122.2519 180° South 424 488 39,000  Level Seattle Center
Mon 12:36:09 AM 45.0617 -122.2508 180° South 430 495 39,000  Level Seattle Center
Mon 12:37:10 AM 44.9444 -122.2503 180° South 423 487 39,000  Level Seattle Center
Mon 12:38:10 AM 44.8103 -122.2508 180° South 414 476 39,000  Level Seattle Center
Mon 12:39:11 AM 44.6939 -122.2511 180° South 417 480 39,000  Level Seattle Center
Mon 12:40:12 AM 44.5764 -122.2500 180° South 423 487 39,000  Level Seattle Center
Mon 12:41:12 AM 44.4583 -122.2494 180° South 423 487 39,000  Level Seattle Center
Mon 12:42:13 AM 44.3400 -122.2481 180° South 423 487 39,000  Level Seattle Center
Mon 12:43:13 AM 44.2228 -122.2478 180° South 421 484 39,000  Level Seattle Center
Mon 12:44:14 AM 44.1067 -122.2475 180° South 417 480 39,000  Level Seattle Center
Mon 12:45:15 AM 43.9908 -122.2469 180° South 416 479 39,000  Level Seattle Center
Mon 12:46:15 AM 43.8756 -122.2458 180° South 414 476 39,000  Level Seattle Center
Mon 12:47:16 AM 43.7589 -122.2456 180° South 416 479 39,000  Level Seattle Center
Mon 12:48:16 AM 43.6453 -122.2456 180° South 411 473 39,000  Level Seattle Center
Mon 12:49:17 AM 43.5289 -122.2458 180° South 415 478 39,000  Level Seattle Center
Mon 12:50:17 AM 43.4147 -122.2444 179° South 411 473 39,000  Level Seattle Center
Mon 12:51:18 AM 43.2994 -122.2483 181° South 411 473 39,000  Level Seattle Center
Mon 12:52:19 AM 43.1856 -122.2644 186° South 411 473 39,000  Level Seattle Center
Mon 12:53:19 AM 43.0711 -122.2797 186° South 412 474 39,000  Level Seattle Center
Mon 12:54:20 AM 42.9561 -122.2933 185° South 413 475 39,000  Level Seattle Center
Mon 12:55:20 AM 42.8417 -122.3086 186° South 413 475 39,000  Level Seattle Center
Mon 12:56:21 AM 42.7181 -122.3236 185° South 412 474 39,000  Level Seattle Center
Mon 12:57:22 AM 42.6036 -122.3386 186° South 413 475 39,000  Level Seattle Center
Mon 12:58:22 AM 42.4900 -122.3531 185° South 412 474 39,000  Level Seattle Center
Mon 12:59:23 AM 42.3767 -122.3664 185° South 411 473 39,000  Level Seattle Center
Mon 01:00:23 AM 42.2636 -122.3814 186° South 412 474 39,000  Level Seattle Center
Mon 01:01:24 AM 42.1492 -122.3950 185° South 417 480 39,000  Level Seattle Center
Mon 01:02:24 AM 42.0356 -122.4097 185° South 416 479 39,000  Level Seattle Center
Mon 01:03:25 AM 41.9228 -122.4236 185° South 413 475 39,000  Level Seattle Center
Mon 01:04:25 AM 41.8086 -122.4400 186° South 416 479 39,000  Level Seattle Center
Mon 01:05:26 AM 41.6706 -122.4553 185° South 418 481 39,000  Level Seattle Center
Mon 01:06:27 AM 41.5553 -122.4706 186° South 419 482 39,000  Level Seattle Center
Mon 01:07:27 AM 41.4400 -122.4828 185° South 417 480 39,000  Level Seattle Center
Mon 01:08:28 AM 41.3364 -122.4975 186° South 417 480 39,000  Level Seattle Center
Mon 01:09:28 AM 41.2211 -122.5097 185° South 417 480 39,000  Level Seattle Center
Mon 01:10:29 AM 41.1064 -122.5242 185° South 416 479 39,000  Level Seattle Center
Mon 01:11:29 AM 40.9911 -122.5378 185° South 417 480 39,000  Level Seattle Center
Mon 01:12:30 AM 40.8758 -122.5514 185° South 417 480 39,000  Level Seattle Center
Mon 01:13:30 AM 40.7372 -122.5683 185° South 418 481 39,000  Level Seattle Center
Mon 01:14:42 AM 40.5989 -122.5842 185° South 416 479 39,000  Level Oakland Center
Mon 01:15:43 AM 40.4836 -122.5975 185° South 416 479 39,000  Level Oakland Center
Mon 01:16:44 AM 40.3689 -122.6117 185° South 417 480 39,000  Level Oakland Center
Mon 01:17:45 AM 40.2547 -122.6256 185° South 418 481 39,000  Level Oakland Center
Mon 01:18:45 AM 40.1397 -122.6381 185° South 419 482 39,000  Level Oakland Center
Mon 01:19:46 AM 40.0253 -122.6517 185° South 418 481 39,000  Level Oakland Center
Mon 01:20:47 AM 39.9111 -122.6653 185° South 416 479 39,000  Level Oakland Center
Mon 01:21:48 AM 39.7964 -122.6772 185° South 416 479 39,000  Level Oakland Center
Mon 01:22:48 AM 39.6825 -122.6906 185° South 414 476 39,000  Level Oakland Center
Mon 01:23:49 AM 39.5669 -122.7042 185° South 417 480 39,000  Level Oakland Center
Mon 01:24:50 AM 39.4292 -122.7189 185° South 416 479 39,000  Level Oakland Center
Mon 01:25:50 AM 39.3133 -122.7308 185° South 418 481 39,000  Level Oakland Center
Mon 01:26:51 AM 39.1981 -122.7433 185° South 416 479 39,000  Level Oakland Center
Mon 01:27:52 AM 39.0950 -122.7572 186° South 420 483 39,000  Level Oakland Center
Mon 01:28:53 AM 38.9800 -122.7689 185° South 417 480 39,000 -1,190 Level Oakland Center
Mon 01:29:53 AM 38.8475 -122.7836 185° South 413 475 36,600 -2,678 Descending Oakland Center
Mon 01:30:54 AM 38.7322 -122.7958 185° South 417 480 33,600 -2,951 Descending Oakland Center
Mon 01:31:55 AM 38.6183 -122.7886 177° South 412 474 30,600 -2,902 Descending Oakland Center
Mon 01:32:56 AM 38.5097 -122.7703 172° South 396 456 27,700 -2,777 Descending Oakland Center
Mon 01:33:56 AM 38.4119 -122.7544 173° South 363 418 25,000 -2,628 Descending Oakland Center
Mon 01:34:57 AM 38.3169 -122.7389 173° South 347 399 22,400 -2,557 Descending Oakland Center
Mon 01:35:58 AM 38.2242 -122.7244 173° South 340 391 19,800 -2,479 Descending Oakland Center
Mon 01:36:58 AM 38.1342 -122.7100 173° South 329 379 17,400 -2,331 Descending Oakland Center
Mon 01:37:59 AM 38.0497 -122.6969 173° South 315 362 15,100 -2,164 Descending Oakland Center
Mon 01:39:00 AM 37.9711 -122.6842 173° South 295 339 13,000 -2,033 Descending Oakland Center
Mon 01:40:00 AM 37.8844 -122.6525 164° South 296 341 11,000 -992 Descending Oakland Center
Mon 01:41:01 AM 37.8250 -122.5919 141° Southeast 283 326 11,000  Level Oakland Center
Mon 01:42:02 AM 37.7650 -122.5283 140° Southeast 285 328 11,000  Level Oakland Center
Mon 01:43:02 AM 37.7247 -122.4422 121° Southeast 292 336 11,000 -816 Level Oakland Center
Mon 01:43:45 AM 37.7000 -122.3667 112° Southeast 279 321 9,600 -2,738 Descending Northern Cal TRACON
Mon 01:44:45 AM 37.6667 -122.2833 117° Southeast 273 314 6,300 -1,905 Descending Northern Cal TRACON
Mon 01:45:51 AM 37.6333 -122.2000 117° Southeast 247 284 5,600 -952 Descending Northern Cal TRACON
Mon 01:46:51 AM 37.5833 -122.1500 142° Southeast 232 267 4,300 -1,316 Descending Northern Cal TRACON
Mon 01:47:45 AM 37.5667 -122.2000 247° West 221 254 3,100 -1,368 Descending Northern Cal TRACON
Mon 01:48:45 AM 37.5833 -122.2667 288° West 212 244 1,700 -1,150 Descending Northern Cal TRACON
Mon 01:49:45 AM 37.6000 -122.3167 293° West 132 152 800 -587 Descending Northern Cal TRACON
Mon 01:51:08 AM 37.6219 -122.3806 293° West 151 174 300 -361 Descending Oakland Center

Login

Don't have an account? Register now (free) for customized features, flight alerts, and more!